createdAt,value
2018-05-08T00:00:08.232Z,998.61
2018-05-08T00:01:08.226Z,998.63
2018-05-08T00:02:08.221Z,998.59
2018-05-08T00:03:08.220Z,998.58
2018-05-08T00:04:08.208Z,998.60
2018-05-08T00:05:08.202Z,998.57
2018-05-08T00:06:08.195Z,998.58
2018-05-08T00:07:08.189Z,998.56
2018-05-08T00:08:08.183Z,998.57
2018-05-08T00:09:08.177Z,998.56
2018-05-08T00:10:08.171Z,998.53
2018-05-08T00:11:08.165Z,998.49
2018-05-08T00:12:08.159Z,998.51
2018-05-08T00:13:08.153Z,998.44
2018-05-08T00:14:08.147Z,998.42
2018-05-08T00:15:08.144Z,998.43
2018-05-08T00:16:08.134Z,998.45
2018-05-08T00:17:08.128Z,998.42
2018-05-08T00:18:08.122Z,998.37
2018-05-08T00:19:08.115Z,998.39
2018-05-08T00:20:08.110Z,998.37
2018-05-08T00:21:08.103Z,998.36
2018-05-08T00:22:08.098Z,998.32
2018-05-08T00:23:08.091Z,998.31
2018-05-08T00:24:08.085Z,998.31
2018-05-08T00:25:08.079Z,998.31
2018-05-08T00:26:08.073Z,998.26
2018-05-08T00:27:08.066Z,998.23
2018-05-08T00:28:08.146Z,998.24
2018-05-08T00:29:08.054Z,998.21
2018-05-08T00:30:08.049Z,998.21
2018-05-08T00:31:08.041Z,998.20
2018-05-08T00:32:08.035Z,998.16
2018-05-08T00:33:08.029Z,998.13
2018-05-08T00:34:08.023Z,998.14
2018-05-08T00:35:08.017Z,998.16
2018-05-08T00:36:08.011Z,998.14
2018-05-08T00:37:08.006Z,998.15
2018-05-08T00:38:07.999Z,998.15
2018-05-08T00:39:07.991Z,998.13
2018-05-08T00:40:07.986Z,998.12
2018-05-08T00:41:07.979Z,998.11
2018-05-08T00:42:07.973Z,998.10
2018-05-08T00:43:07.966Z,998.08
2018-05-08T00:44:07.960Z,998.06
2018-05-08T00:45:07.955Z,998.07
2018-05-08T00:46:07.948Z,998.11
2018-05-08T00:47:07.941Z,998.10
2018-05-08T00:48:07.935Z,998.10
2018-05-08T00:49:07.929Z,998.10
2018-05-08T00:50:07.923Z,998.10
2018-05-08T00:51:07.916Z,998.10
2018-05-08T00:52:07.910Z,998.12
2018-05-08T00:53:07.905Z,998.09
2018-05-08T00:54:07.898Z,998.07
2018-05-08T00:55:07.891Z,998.09
2018-05-08T00:56:07.885Z,998.04
2018-05-08T00:57:07.881Z,998.04
2018-05-08T00:58:07.873Z,998.03
2018-05-08T00:59:07.866Z,998.06
2018-05-08T01:00:07.860Z,998.02
2018-05-08T01:01:07.854Z,998.06
2018-05-08T01:02:07.848Z,998.02
2018-05-08T01:03:07.841Z,998.02
2018-05-08T01:04:07.836Z,998.00
2018-05-08T01:05:07.829Z,997.99
2018-05-08T01:06:07.824Z,997.95
2018-05-08T01:07:07.816Z,997.93
2018-05-08T01:08:07.810Z,997.91
2018-05-08T01:09:07.804Z,997.91
2018-05-08T01:10:07.798Z,997.93
2018-05-08T01:11:07.791Z,997.92
2018-05-08T01:12:07.787Z,997.90
2018-05-08T01:13:07.779Z,997.87
2018-05-08T01:14:07.774Z,997.91
2018-05-08T01:15:07.767Z,997.88
2018-05-08T01:16:07.764Z,997.91
2018-05-08T01:17:07.935Z,997.90
2018-05-08T01:18:07.748Z,997.88
2018-05-08T01:19:07.742Z,997.85
2018-05-08T01:20:07.736Z,997.90
2018-05-08T01:21:07.730Z,997.89
2018-05-08T01:22:07.727Z,997.85
2018-05-08T01:23:07.717Z,997.85
2018-05-08T01:24:07.711Z,997.83
2018-05-08T01:25:07.705Z,997.83
2018-05-08T01:26:07.700Z,997.84
2018-05-08T01:27:07.691Z,997.82
2018-05-08T01:28:07.686Z,997.79
2018-05-08T01:29:07.679Z,997.80
2018-05-08T01:30:07.675Z,997.78
2018-05-08T01:31:07.666Z,997.77
2018-05-08T01:32:07.660Z,997.78
2018-05-08T01:33:07.654Z,997.76
2018-05-08T01:34:07.648Z,997.75
2018-05-08T01:35:07.642Z,997.74
2018-05-08T01:36:07.635Z,997.77
2018-05-08T01:37:07.629Z,997.76
2018-05-08T01:38:07.627Z,997.73
2018-05-08T01:39:07.616Z,997.72
2018-05-08T01:40:07.610Z,997.69
2018-05-08T01:41:07.608Z,997.71
2018-05-08T01:42:07.598Z,997.71
2018-05-08T01:43:07.590Z,997.71
2018-05-08T01:44:07.584Z,997.69
2018-05-08T01:45:07.578Z,997.70
2018-05-08T01:46:07.575Z,997.67
2018-05-08T01:47:07.564Z,997.72
2018-05-08T01:48:07.626Z,997.71
2018-05-08T01:49:07.552Z,997.69
2018-05-08T01:50:07.545Z,997.71
2018-05-08T01:51:07.539Z,997.71
2018-05-08T01:52:07.532Z,997.72
2018-05-08T01:53:07.528Z,997.71
2018-05-08T01:54:07.520Z,997.71
2018-05-08T01:55:07.513Z,997.68
2018-05-08T01:56:07.506Z,997.69
2018-05-08T01:57:07.500Z,997.71
2018-05-08T01:58:07.493Z,997.68
2018-05-08T01:59:07.486Z,997.68
2018-05-08T02:00:07.484Z,997.63
2018-05-08T02:01:07.473Z,997.60
2018-05-08T02:02:07.468Z,997.66
2018-05-08T02:03:07.460Z,997.62
2018-05-08T02:04:07.454Z,997.63
2018-05-08T02:05:07.448Z,997.59
2018-05-08T02:06:07.442Z,997.57
2018-05-08T02:07:07.437Z,997.57
2018-05-08T02:08:07.427Z,997.55
2018-05-08T02:09:07.422Z,997.55
2018-05-08T02:10:07.414Z,997.47
2018-05-08T02:11:07.407Z,997.51
2018-05-08T02:12:07.401Z,997.48
2018-05-08T02:13:07.395Z,997.47
2018-05-08T02:14:07.388Z,997.47
2018-05-08T02:15:07.380Z,997.44
2018-05-08T02:16:07.374Z,997.46
2018-05-08T02:17:07.368Z,997.42
2018-05-08T02:18:07.361Z,997.40
2018-05-08T02:19:07.355Z,997.43
2018-05-08T02:20:07.349Z,997.40
2018-05-08T02:21:07.341Z,997.40
2018-05-08T02:22:07.336Z,997.39
2018-05-08T02:23:07.328Z,997.35
2018-05-08T02:24:07.321Z,997.34
2018-05-08T02:25:07.317Z,997.34
2018-05-08T02:26:07.310Z,997.36
2018-05-08T02:27:07.305Z,997.33
2018-05-08T02:28:07.294Z,997.32
2018-05-08T02:29:07.288Z,997.28
2018-05-08T02:30:07.282Z,997.27
2018-05-08T02:31:07.275Z,997.32
2018-05-08T02:32:07.268Z,997.29
2018-05-08T02:33:07.261Z,997.31
2018-05-08T02:34:07.255Z,997.30
2018-05-08T02:35:07.248Z,997.32
2018-05-08T02:36:07.241Z,997.30
2018-05-08T02:37:07.234Z,997.31
2018-05-08T02:38:07.228Z,997.32
2018-05-08T02:39:07.220Z,997.31
2018-05-08T02:40:07.218Z,997.31
2018-05-08T02:41:07.207Z,997.29
2018-05-08T02:42:07.202Z,997.29
2018-05-08T02:43:07.193Z,997.28
2018-05-08T02:44:07.186Z,997.29
2018-05-08T02:45:07.180Z,997.25
2018-05-08T02:46:07.175Z,997.23
2018-05-08T02:47:07.166Z,997.25
2018-05-08T02:48:07.159Z,997.22
2018-05-08T02:49:07.152Z,997.21
2018-05-08T02:50:07.146Z,997.23
2018-05-08T02:51:07.137Z,997.22
2018-05-08T02:52:07.132Z,997.19
2018-05-08T02:53:07.125Z,997.17
2018-05-08T02:54:07.118Z,997.15
2018-05-08T02:55:07.110Z,997.18
2018-05-08T02:56:07.106Z,997.14
2018-05-08T02:57:07.097Z,997.12
2018-05-08T02:58:07.091Z,997.14
2018-05-08T02:59:07.083Z,997.14
2018-05-08T03:00:07.076Z,997.13
2018-05-08T03:01:07.070Z,997.13
2018-05-08T03:02:07.063Z,997.14
2018-05-08T03:03:07.056Z,997.14
2018-05-08T03:04:07.049Z,997.10
2018-05-08T03:05:07.045Z,997.16
2018-05-08T03:06:07.036Z,997.19
2018-05-08T03:07:07.030Z,997.14
2018-05-08T03:08:07.021Z,997.13
2018-05-08T03:09:07.015Z,997.14
2018-05-08T03:10:07.009Z,997.14
2018-05-08T03:11:07.001Z,997.11
2018-05-08T03:12:06.993Z,997.12
2018-05-08T03:13:06.987Z,997.08
2018-05-08T03:14:06.979Z,997.08
2018-05-08T03:15:06.971Z,997.09
2018-05-08T03:16:06.965Z,997.07
2018-05-08T03:17:06.957Z,997.02
2018-05-08T03:18:06.951Z,997.06
2018-05-08T03:19:06.943Z,997.08
2018-05-08T03:20:06.936Z,997.04
2018-05-08T03:21:06.935Z,997.03
2018-05-08T03:22:06.923Z,996.98
2018-05-08T03:23:06.915Z,997.03
2018-05-08T03:24:06.908Z,997.03
2018-05-08T03:25:06.901Z,996.99
2018-05-08T03:26:06.894Z,997.01
2018-05-08T03:27:06.886Z,997.00
2018-05-08T03:28:06.880Z,996.93
2018-05-08T03:29:06.872Z,996.96
2018-05-08T03:30:06.873Z,996.95
2018-05-08T03:31:06.857Z,996.94
2018-05-08T03:32:06.851Z,996.92
2018-05-08T03:33:06.844Z,996.93
2018-05-08T03:34:06.839Z,996.91
2018-05-08T03:35:06.830Z,996.87
2018-05-08T03:36:06.822Z,996.90
2018-05-08T03:37:06.816Z,996.93
2018-05-08T03:38:06.808Z,996.89
2018-05-08T03:39:06.800Z,996.87
2018-05-08T03:40:06.795Z,996.91
2018-05-08T03:41:06.787Z,996.89
2018-05-08T03:42:06.780Z,996.94
2018-05-08T03:43:06.772Z,996.92
2018-05-08T03:44:06.765Z,996.92
2018-05-08T03:45:06.758Z,996.94
2018-05-08T03:46:06.759Z,996.93
2018-05-08T03:47:06.743Z,996.88
2018-05-08T03:48:06.737Z,996.88
2018-05-08T03:49:06.729Z,996.88
2018-05-08T03:50:06.721Z,996.90
2018-05-08T03:51:06.714Z,996.86
2018-05-08T03:52:06.707Z,996.87
2018-05-08T03:53:06.702Z,996.86
2018-05-08T03:54:06.692Z,996.84
2018-05-08T03:55:06.685Z,996.84
2018-05-08T03:56:06.677Z,996.80
2018-05-08T03:57:06.670Z,996.81
2018-05-08T03:58:06.667Z,996.80
2018-05-08T03:59:06.655Z,996.79
2018-05-08T04:00:06.648Z,996.83
2018-05-08T04:01:06.640Z,996.81
2018-05-08T04:02:06.634Z,996.77
2018-05-08T04:03:06.626Z,996.81
2018-05-08T04:04:06.619Z,996.76
2018-05-08T04:05:06.612Z,996.76
2018-05-08T04:06:06.605Z,996.78
2018-05-08T04:07:06.596Z,996.76
2018-05-08T04:08:06.590Z,996.75
2018-05-08T04:09:06.583Z,996.78
2018-05-08T04:10:06.576Z,996.75
2018-05-08T04:11:06.567Z,996.78
2018-05-08T04:12:06.560Z,996.79
2018-05-08T04:13:06.553Z,996.79
2018-05-08T04:14:06.546Z,996.77
2018-05-08T04:15:06.557Z,996.78
2018-05-08T04:16:06.533Z,996.76
2018-05-08T04:17:06.526Z,996.74
2018-05-08T04:18:06.517Z,996.75
2018-05-08T04:19:06.509Z,996.73
2018-05-08T04:20:06.502Z,996.73
2018-05-08T04:21:06.564Z,996.71
2018-05-08T04:22:06.488Z,996.67
2018-05-08T04:23:06.482Z,996.64
2018-05-08T04:24:06.473Z,996.62
2018-05-08T04:25:06.466Z,996.62
2018-05-08T04:26:06.460Z,996.61
2018-05-08T04:27:06.513Z,996.61
2018-05-08T04:28:06.444Z,996.61
2018-05-08T04:29:06.438Z,996.59
2018-05-08T04:30:06.429Z,996.63
2018-05-08T04:31:06.428Z,996.61
2018-05-08T04:32:06.415Z,996.63
2018-05-08T04:33:06.408Z,996.62
2018-05-08T04:34:06.403Z,996.62
2018-05-08T04:35:06.394Z,996.60
2018-05-08T04:36:06.385Z,996.60
2018-05-08T04:37:06.378Z,996.60
2018-05-08T04:38:06.372Z,996.53
2018-05-08T04:39:06.364Z,996.55
2018-05-08T04:40:06.358Z,996.54
2018-05-08T04:41:06.352Z,996.55
2018-05-08T04:42:06.342Z,996.52
2018-05-08T04:43:06.335Z,996.50
2018-05-08T04:44:06.362Z,996.54
2018-05-08T04:45:06.320Z,996.55
2018-05-08T04:46:06.314Z,996.52
2018-05-08T04:47:06.305Z,996.56
2018-05-08T04:48:06.298Z,996.52
2018-05-08T04:49:06.292Z,996.52
2018-05-08T04:50:06.291Z,996.54
2018-05-08T04:51:06.277Z,996.49
2018-05-08T04:52:06.270Z,996.50
2018-05-08T04:53:06.263Z,996.48
2018-05-08T04:54:06.258Z,996.48
2018-05-08T04:55:06.248Z,996.46
2018-05-08T04:56:06.241Z,996.47
2018-05-08T04:57:06.244Z,996.50
2018-05-08T04:58:06.228Z,996.45
2018-05-08T04:59:06.220Z,996.47
2018-05-08T05:00:06.213Z,996.46
2018-05-08T05:01:06.210Z,996.48
2018-05-08T05:02:06.199Z,996.46
2018-05-08T05:03:06.192Z,996.47
2018-05-08T05:04:06.185Z,996.46
2018-05-08T05:05:06.178Z,996.50
2018-05-08T05:06:06.171Z,996.49
2018-05-08T05:07:06.163Z,996.48
2018-05-08T05:08:06.157Z,996.50
2018-05-08T05:09:06.150Z,996.49
2018-05-08T05:10:06.143Z,996.49
2018-05-08T05:11:06.146Z,996.47
2018-05-08T05:12:06.129Z,996.49
2018-05-08T05:13:06.123Z,996.49
2018-05-08T05:14:06.116Z,996.47
2018-05-08T05:15:06.108Z,996.50
2018-05-08T05:16:06.102Z,996.47
2018-05-08T05:17:06.100Z,996.50
2018-05-08T05:18:06.089Z,996.41
2018-05-08T05:19:06.157Z,996.43
2018-05-08T05:20:06.078Z,996.44
2018-05-08T05:21:06.067Z,996.46
2018-05-08T05:22:06.060Z,996.49
2018-05-08T05:23:06.052Z,996.47
2018-05-08T05:24:06.046Z,996.49
2018-05-08T05:25:06.041Z,996.49
2018-05-08T05:26:06.033Z,996.49
2018-05-08T05:27:06.025Z,996.48
2018-05-08T05:28:06.019Z,996.46
2018-05-08T05:29:06.013Z,996.50
2018-05-08T05:30:06.008Z,996.43
2018-05-08T05:31:05.999Z,996.47
2018-05-08T05:32:05.992Z,996.45
2018-05-08T05:33:05.986Z,996.47
2018-05-08T05:34:05.982Z,996.46
2018-05-08T05:35:05.973Z,996.45
2018-05-08T05:36:05.966Z,996.49
2018-05-08T05:37:05.960Z,996.45
2018-05-08T05:38:05.956Z,996.39
2018-05-08T05:39:05.946Z,996.42
2018-05-08T05:40:05.940Z,996.38
2018-05-08T05:41:05.934Z,996.38
2018-05-08T05:42:05.928Z,996.41
2018-05-08T05:43:05.921Z,996.42
2018-05-08T05:44:05.915Z,996.45
2018-05-08T05:45:05.909Z,996.41
2018-05-08T05:46:05.903Z,996.39
2018-05-08T05:47:05.896Z,996.40
2018-05-08T05:48:05.890Z,996.41
2018-05-08T05:49:05.885Z,996.43
2018-05-08T05:50:05.878Z,996.44
2018-05-08T05:51:05.871Z,996.38
2018-05-08T05:52:05.871Z,996.47
2018-05-08T05:53:05.863Z,996.40
2018-05-08T05:54:05.854Z,996.44
2018-05-08T05:55:05.847Z,996.43
2018-05-08T05:56:05.844Z,996.37
2018-05-08T05:57:05.836Z,996.37
2018-05-08T05:58:05.831Z,996.40
2018-05-08T05:59:05.824Z,996.35
2018-05-08T06:00:05.907Z,996.32
2018-05-08T06:01:05.812Z,996.35
2018-05-08T06:02:05.807Z,996.35
2018-05-08T06:03:05.800Z,996.31
2018-05-08T06:04:05.801Z,996.33
2018-05-08T06:05:05.789Z,996.34
2018-05-08T06:06:05.784Z,996.31
2018-05-08T06:07:05.778Z,996.32
2018-05-08T06:08:05.774Z,996.30
2018-05-08T06:09:05.766Z,996.31
2018-05-08T06:10:05.762Z,996.32
2018-05-08T06:11:05.755Z,996.32
2018-05-08T06:12:05.750Z,996.28
2018-05-08T06:13:05.759Z,996.30
2018-05-08T06:14:05.740Z,996.32
2018-05-08T06:15:05.734Z,996.32
2018-05-08T06:16:05.729Z,996.26
2018-05-08T06:17:05.723Z,996.31
2018-05-08T06:18:05.722Z,996.24
2018-05-08T06:19:05.713Z,996.25
2018-05-08T06:20:05.707Z,996.28
2018-05-08T06:21:05.703Z,996.24
2018-05-08T06:22:05.698Z,996.22
2018-05-08T06:23:05.692Z,996.23
2018-05-08T06:24:05.691Z,996.21
2018-05-08T06:25:05.684Z,996.21
2018-05-08T06:26:05.679Z,996.22
2018-05-08T06:27:05.674Z,996.22
2018-05-08T06:28:05.670Z,996.22
2018-05-08T06:29:05.666Z,996.25
2018-05-08T06:30:05.665Z,996.25
2018-05-08T06:31:05.656Z,996.26
2018-05-08T06:32:05.652Z,996.25
2018-05-08T06:33:05.648Z,996.28
2018-05-08T06:34:05.644Z,996.26
2018-05-08T06:35:05.639Z,996.27
2018-05-08T06:36:05.642Z,996.25
2018-05-08T06:37:05.633Z,996.27
2018-05-08T06:38:05.627Z,996.25
2018-05-08T06:39:05.623Z,996.26
2018-05-08T06:40:05.623Z,996.27
2018-05-08T06:41:05.615Z,996.28
2018-05-08T06:42:05.611Z,996.24
2018-05-08T06:43:05.606Z,996.22
2018-05-08T06:44:05.607Z,996.26
2018-05-08T06:45:05.600Z,996.22
2018-05-08T06:46:05.623Z,996.24
2018-05-08T06:47:05.593Z,996.18
2018-05-08T06:48:05.588Z,996.18
2018-05-08T06:49:05.590Z,996.19
2018-05-08T06:50:05.582Z,996.17
2018-05-08T06:51:05.577Z,996.14
2018-05-08T06:52:05.576Z,996.18
2018-05-08T06:53:05.571Z,996.22
2018-05-08T06:54:05.568Z,996.17
2018-05-08T06:55:05.564Z,996.15
2018-05-08T06:56:05.562Z,996.18
2018-05-08T06:57:05.560Z,996.17
2018-05-08T06:58:05.556Z,996.23
2018-05-08T06:59:05.553Z,996.16
2018-05-08T07:00:05.551Z,996.16
2018-05-08T07:01:05.548Z,996.19
2018-05-08T07:02:05.546Z,996.19
2018-05-08T07:03:05.543Z,996.20
2018-05-08T07:04:05.541Z,996.20
2018-05-08T07:05:05.539Z,996.24
2018-05-08T07:06:05.540Z,996.17
2018-05-08T07:07:05.534Z,996.21
2018-05-08T07:08:05.533Z,996.18
2018-05-08T07:09:05.579Z,996.19
2018-05-08T07:10:05.531Z,996.20
2018-05-08T07:11:05.530Z,996.23
2018-05-08T07:12:05.530Z,996.22
2018-05-08T07:13:05.531Z,996.26
2018-05-08T07:14:05.533Z,996.27
2018-05-08T07:15:05.537Z,996.22
2018-05-08T07:16:05.762Z,996.20
2018-05-08T07:17:05.540Z,996.25
2018-05-08T07:18:05.542Z,996.20
2018-05-08T07:19:05.545Z,996.19
2018-05-08T07:20:05.549Z,996.27
2018-05-08T07:21:05.556Z,996.24
2018-05-08T07:22:05.559Z,996.22
2018-05-08T07:23:05.566Z,996.23
2018-05-08T07:24:05.579Z,996.20
2018-05-08T07:25:05.576Z,996.18
2018-05-08T07:26:05.582Z,996.21
2018-05-08T07:27:05.588Z,996.20
2018-05-08T07:28:05.599Z,996.20
2018-05-08T07:29:05.604Z,996.19
2018-05-08T07:30:05.689Z,996.19
2018-05-08T07:31:05.619Z,996.20
2018-05-08T07:32:05.631Z,996.25
2018-05-08T07:33:05.639Z,996.23
2018-05-08T07:34:05.701Z,996.24
2018-05-08T07:35:05.657Z,996.19
2018-05-08T07:36:05.663Z,996.25
2018-05-08T07:37:05.673Z,996.23
2018-05-08T07:38:05.683Z,996.18
2018-05-08T07:39:05.692Z,996.17
2018-05-08T07:40:05.700Z,996.22
2018-05-08T07:41:05.711Z,996.20
2018-05-08T07:42:05.721Z,996.22
2018-05-08T07:43:05.730Z,996.23
2018-05-08T07:44:05.740Z,996.22
2018-05-08T07:45:05.751Z,996.21
2018-05-08T07:46:05.762Z,996.25
2018-05-08T07:47:05.771Z,996.23
2018-05-08T07:48:05.782Z,996.23
2018-05-08T07:49:05.792Z,996.26
2018-05-08T07:50:05.804Z,996.29
2018-05-08T07:51:05.814Z,996.27
2018-05-08T07:52:05.824Z,996.22
2018-05-08T07:53:05.835Z,996.20
2018-05-08T07:54:05.847Z,996.24
2018-05-08T07:55:05.858Z,996.26
2018-05-08T07:56:05.869Z,996.26
2018-05-08T07:57:05.881Z,996.31
2018-05-08T07:58:05.894Z,996.27
2018-05-08T07:59:05.907Z,996.26
2018-05-08T08:00:05.918Z,996.28
2018-05-08T08:01:05.930Z,996.24
2018-05-08T08:02:05.943Z,996.23
2018-05-08T08:03:05.954Z,996.24
2018-05-08T08:04:05.968Z,996.21
2018-05-08T08:05:05.981Z,996.21
2018-05-08T08:06:05.993Z,996.24
2018-05-08T08:07:06.005Z,996.22
2018-05-08T08:08:06.018Z,996.23
2018-05-08T08:09:06.032Z,996.21
2018-05-08T08:10:06.044Z,996.18
2018-05-08T08:11:06.057Z,996.20
2018-05-08T08:12:06.070Z,996.20
2018-05-08T08:13:06.084Z,996.23
2018-05-08T08:14:06.097Z,996.17
2018-05-08T08:15:06.109Z,996.20
2018-05-08T08:16:06.122Z,996.21
2018-05-08T08:17:06.135Z,996.17
2018-05-08T08:18:06.152Z,996.19
2018-05-08T08:19:06.197Z,996.13
2018-05-08T08:20:06.185Z,996.13
2018-05-08T08:21:06.188Z,996.12
2018-05-08T08:22:06.202Z,996.14
2018-05-08T08:23:06.214Z,996.15
2018-05-08T08:24:06.229Z,996.08
2018-05-08T08:25:06.243Z,996.07
2018-05-08T08:26:06.257Z,996.12
2018-05-08T08:27:06.271Z,996.14
2018-05-08T08:28:06.286Z,996.15
2018-05-08T08:29:06.301Z,996.12
2018-05-08T08:30:06.315Z,996.12
2018-05-08T08:31:06.332Z,996.11
2018-05-08T08:32:06.345Z,996.08
2018-05-08T08:33:06.360Z,996.03
2018-05-08T08:34:06.375Z,996.05
2018-05-08T08:35:06.390Z,996.07
2018-05-08T08:36:06.407Z,996.03
2018-05-08T08:37:06.420Z,996.05
2018-05-08T08:38:06.436Z,996.07
2018-05-08T08:39:06.455Z,996.08
2018-05-08T08:40:06.466Z,996.05
2018-05-08T08:41:06.481Z,996.08
2018-05-08T08:42:06.496Z,996.05
2018-05-08T08:43:06.510Z,996.05
2018-05-08T08:44:06.526Z,996.06
2018-05-08T08:45:06.540Z,996.04
2018-05-08T08:46:06.555Z,996.05
2018-05-08T08:47:06.569Z,996.04
2018-05-08T08:48:06.584Z,996.05
2018-05-08T08:49:06.599Z,996.05
2018-05-08T08:50:06.614Z,996.00
2018-05-08T08:51:06.628Z,995.95
2018-05-08T08:52:06.643Z,995.96
2018-05-08T08:53:06.657Z,995.92
2018-05-08T08:54:06.673Z,995.93
2018-05-08T08:55:06.688Z,995.90
2018-05-08T08:56:06.745Z,995.93
2018-05-08T08:57:06.716Z,995.91
2018-05-08T08:58:06.731Z,995.88
2018-05-08T08:59:06.744Z,995.91
2018-05-08T09:00:06.759Z,995.92
2018-05-08T09:01:06.778Z,995.89
2018-05-08T09:02:06.804Z,995.85
2018-05-08T09:03:06.805Z,995.82
2018-05-08T09:04:06.899Z,995.83
2018-05-08T09:05:06.834Z,995.86
2018-05-08T09:06:06.850Z,995.86
2018-05-08T09:07:06.864Z,995.90
2018-05-08T09:08:06.880Z,995.82
2018-05-08T09:09:06.896Z,995.87
2018-05-08T09:10:06.911Z,995.87
2018-05-08T09:11:06.964Z,995.80
2018-05-08T09:12:06.941Z,995.81
2018-05-08T09:13:06.956Z,995.82
2018-05-08T09:14:06.984Z,995.82
2018-05-08T09:15:06.987Z,995.79
2018-05-08T09:16:07.007Z,995.80
2018-05-08T09:17:07.018Z,995.78
2018-05-08T09:18:07.034Z,995.80
2018-05-08T09:19:07.054Z,995.78
2018-05-08T09:20:07.065Z,995.78
2018-05-08T09:21:07.081Z,995.75
2018-05-08T09:22:07.097Z,995.69
2018-05-08T09:23:07.112Z,995.70
2018-05-08T09:24:07.129Z,995.67
2018-05-08T09:25:07.145Z,995.67
2018-05-08T09:26:07.162Z,995.68
2018-05-08T09:27:07.177Z,995.64
2018-05-08T09:28:07.194Z,995.62
2018-05-08T09:29:07.212Z,995.61
2018-05-08T09:30:07.231Z,995.60
2018-05-08T09:31:07.248Z,995.56
2018-05-08T09:32:07.269Z,995.54
2018-05-08T09:33:07.280Z,995.53
2018-05-08T09:34:07.299Z,995.50
2018-05-08T09:35:07.321Z,995.54
2018-05-08T09:36:07.332Z,995.48
2018-05-08T09:37:07.354Z,995.45
2018-05-08T09:38:07.368Z,995.45
2018-05-08T09:39:07.387Z,995.44
2018-05-08T09:40:07.404Z,995.45
2018-05-08T09:41:07.423Z,995.46
2018-05-08T09:42:07.441Z,995.40
2018-05-08T09:43:07.459Z,995.40
2018-05-08T09:44:07.480Z,995.44
2018-05-08T09:45:07.496Z,995.45
2018-05-08T09:46:07.516Z,995.37
2018-05-08T09:47:07.533Z,995.39
2018-05-08T09:48:07.552Z,995.38
2018-05-08T09:49:07.625Z,995.35
2018-05-08T09:50:07.590Z,995.36
2018-05-08T09:51:07.608Z,995.35
2018-05-08T09:52:07.628Z,995.37
2018-05-08T09:53:07.647Z,995.31
2018-05-08T09:54:07.700Z,995.33
2018-05-08T09:55:07.685Z,995.30
2018-05-08T09:56:07.704Z,995.31
2018-05-08T09:57:07.724Z,995.31
2018-05-08T09:58:07.744Z,995.27
2018-05-08T09:59:07.762Z,995.27
2018-05-08T10:00:07.782Z,995.27
2018-05-08T10:01:07.836Z,995.27
2018-05-08T10:02:07.821Z,995.23
2018-05-08T10:03:07.839Z,995.24
2018-05-08T10:04:07.860Z,995.22
2018-05-08T10:05:07.879Z,995.21
2018-05-08T10:06:07.907Z,995.16
2018-05-08T10:07:07.917Z,995.22
2018-05-08T10:08:07.938Z,995.15
2018-05-08T10:09:07.957Z,995.16
2018-05-08T10:10:07.976Z,995.14
2018-05-08T10:11:07.995Z,995.17
2018-05-08T10:12:08.014Z,995.13
2018-05-08T10:13:08.034Z,995.14
2018-05-08T10:14:08.053Z,995.10
2018-05-08T10:15:08.074Z,995.13
2018-05-08T10:16:08.091Z,995.06
2018-05-08T10:17:08.111Z,995.09
2018-05-08T10:18:08.131Z,995.09
2018-05-08T10:19:08.153Z,995.07
2018-05-08T10:20:08.168Z,995.17
2018-05-08T10:21:08.189Z,995.10
2018-05-08T10:22:08.210Z,995.07
2018-05-08T10:23:08.225Z,995.04
2018-05-08T10:24:08.245Z,995.05
2018-05-08T10:25:08.264Z,995.03
2018-05-08T10:26:08.283Z,994.99
2018-05-08T10:27:08.301Z,995.02
2018-05-08T10:28:08.319Z,995.03
2018-05-08T10:29:08.340Z,994.99
2018-05-08T10:30:08.358Z,994.99
2018-05-08T10:31:08.376Z,994.97
2018-05-08T10:32:08.396Z,994.93
2018-05-08T10:33:08.414Z,994.97
2018-05-08T10:34:08.433Z,994.97
2018-05-08T10:35:08.450Z,995.01
2018-05-08T10:36:08.469Z,994.95
2018-05-08T10:37:08.490Z,994.96
2018-05-08T10:38:08.507Z,994.93
2018-05-08T10:39:08.525Z,994.92
2018-05-08T10:40:08.543Z,994.86
2018-05-08T10:41:08.562Z,994.85
2018-05-08T10:42:08.581Z,994.84
2018-05-08T10:43:08.603Z,994.82
2018-05-08T10:44:08.617Z,994.86
2018-05-08T10:45:08.636Z,994.81
2018-05-08T10:46:08.655Z,994.76
2018-05-08T10:47:08.673Z,994.84
2018-05-08T10:48:08.693Z,994.81
2018-05-08T10:49:08.711Z,994.80
2018-05-08T10:50:08.730Z,994.85
2018-05-08T10:51:08.748Z,994.79
2018-05-08T10:52:08.767Z,994.82
2018-05-08T10:53:08.785Z,994.75
2018-05-08T10:54:08.804Z,994.78
2018-05-08T10:55:08.822Z,994.70
2018-05-08T10:56:08.841Z,994.74
2018-05-08T10:57:08.898Z,994.72
2018-05-08T10:58:08.879Z,994.75
2018-05-08T10:59:08.902Z,994.70
2018-05-08T11:00:08.917Z,994.69
2018-05-08T11:01:08.934Z,994.68
2018-05-08T11:02:08.953Z,994.63
2018-05-08T11:03:08.971Z,994.57
2018-05-08T11:04:08.990Z,994.62
2018-05-08T11:05:09.009Z,994.60
2018-05-08T11:06:09.029Z,994.62
2018-05-08T11:07:09.047Z,994.58
2018-05-08T11:08:09.065Z,994.56
2018-05-08T11:09:09.084Z,994.57
2018-05-08T11:10:09.104Z,994.54
2018-05-08T11:11:09.122Z,994.55
2018-05-08T11:12:09.146Z,994.52
2018-05-08T11:13:09.158Z,994.51
2018-05-08T11:14:09.177Z,994.47
2018-05-08T11:15:09.196Z,994.47
2018-05-08T11:16:09.215Z,994.44
2018-05-08T11:17:09.232Z,994.40
2018-05-08T11:18:09.251Z,994.43
2018-05-08T11:19:09.269Z,994.43
2018-05-08T11:20:09.288Z,994.38
2018-05-08T11:21:09.307Z,994.41
2018-05-08T11:22:09.325Z,994.37
2018-05-08T11:23:09.343Z,994.35
2018-05-08T11:24:09.361Z,994.35
2018-05-08T11:25:09.380Z,994.28
2018-05-08T11:26:09.399Z,994.27
2018-05-08T11:27:09.416Z,994.29
2018-05-08T11:28:09.438Z,994.27
2018-05-08T11:29:09.455Z,994.30
2018-05-08T11:30:09.473Z,994.29
2018-05-08T11:31:09.490Z,994.29
2018-05-08T11:32:09.510Z,994.27
2018-05-08T11:33:09.528Z,994.30
2018-05-08T11:34:09.546Z,994.29
2018-05-08T11:35:09.563Z,994.28
2018-05-08T11:36:09.581Z,994.27
2018-05-08T11:37:09.600Z,994.28
2018-05-08T11:38:09.617Z,994.27
2018-05-08T11:39:09.705Z,994.26
2018-05-08T11:40:09.652Z,994.18
2018-05-08T11:41:09.672Z,994.20
2018-05-08T11:42:09.688Z,994.24
2018-05-08T11:43:09.706Z,994.22
2018-05-08T11:44:09.721Z,994.23
2018-05-08T11:45:09.739Z,994.21
2018-05-08T11:46:09.756Z,994.19
2018-05-08T11:47:09.772Z,994.14
2018-05-08T11:48:09.791Z,994.16
2018-05-08T11:49:09.805Z,994.18
2018-05-08T11:50:09.857Z,994.13
2018-05-08T11:51:09.837Z,994.07
2018-05-08T11:52:09.854Z,994.07
2018-05-08T11:53:09.870Z,994.05
2018-05-08T11:54:09.895Z,994.08
2018-05-08T11:55:09.902Z,994.09
2018-05-08T11:56:09.925Z,994.09
2018-05-08T11:57:09.936Z,994.05
2018-05-08T11:58:09.950Z,994.02
2018-05-08T11:59:09.966Z,993.99
2018-05-08T12:00:09.982Z,994.07
2018-05-08T12:01:10.002Z,993.96
2018-05-08T12:02:10.013Z,993.98
2018-05-08T12:03:10.028Z,994.01
2018-05-08T12:04:10.044Z,993.95
2018-05-08T12:05:10.061Z,993.91
2018-05-08T12:06:10.075Z,993.92
2018-05-08T12:07:10.089Z,993.89
2018-05-08T12:08:10.105Z,993.88
2018-05-08T12:09:10.201Z,993.89
2018-05-08T12:10:10.139Z,993.87
2018-05-08T12:11:10.151Z,993.83
2018-05-08T12:12:10.166Z,993.80
2018-05-08T12:13:10.183Z,993.88
2018-05-08T12:14:10.199Z,993.85
2018-05-08T12:15:10.217Z,993.82
2018-05-08T12:16:10.233Z,993.93
2018-05-08T12:17:10.245Z,993.83
2018-05-08T12:18:10.261Z,993.84
2018-05-08T12:19:10.277Z,993.83
2018-05-08T12:20:10.292Z,993.85
2018-05-08T12:21:10.308Z,993.84
2018-05-08T12:22:10.324Z,993.81
2018-05-08T12:23:10.344Z,993.80
2018-05-08T12:24:10.354Z,993.79
2018-05-08T12:25:10.371Z,993.78
2018-05-08T12:26:10.386Z,993.79
2018-05-08T12:27:10.401Z,993.75
2018-05-08T12:28:10.417Z,993.78